sensor_id;sensor_type;location;lat;lon;timestamp;P1;durP1;ratioP1;P2;durP2;ratioP2
70052;SDS011;57398;52.032;4.376;2023-06-14T00:00:24;6.10;;;3.10;;
70052;SDS011;57398;52.032;4.376;2023-06-14T00:03:14;6.43;;;3.30;;
70052;SDS011;57398;52.032;4.376;2023-06-14T00:06:04;8.00;;;3.53;;
70052;SDS011;57398;52.032;4.376;2023-06-14T00:08:53;7.50;;;3.50;;
70052;SDS011;57398;52.032;4.376;2023-06-14T00:11:41;6.90;;;3.55;;
70052;SDS011;57398;52.032;4.376;2023-06-14T00:14:29;8.55;;;3.65;;
70052;SDS011;57398;52.032;4.376;2023-06-14T00:17:17;9.27;;;3.63;;
70052;SDS011;57398;52.032;4.376;2023-06-14T00:20:07;9.35;;;3.80;;
70052;SDS011;57398;52.032;4.376;2023-06-14T00:22:56;9.20;;;4.15;;
70052;SDS011;57398;52.032;4.376;2023-06-14T00:25:45;7.40;;;3.72;;
70052;SDS011;57398;52.032;4.376;2023-06-14T00:28:33;6.97;;;3.40;;
70052;SDS011;57398;52.032;4.376;2023-06-14T00:31:21;9.33;;;3.90;;
70052;SDS011;57398;52.032;4.376;2023-06-14T00:34:11;9.20;;;4.07;;
70052;SDS011;57398;52.032;4.376;2023-06-14T00:37:00;8.88;;;3.55;;
70052;SDS011;57398;52.032;4.376;2023-06-14T00:39:50;8.45;;;3.67;;
70052;SDS011;57398;52.032;4.376;2023-06-14T00:42:39;7.60;;;3.70;;
70052;SDS011;57398;52.032;4.376;2023-06-14T00:45:27;7.43;;;3.67;;
70052;SDS011;57398;52.032;4.376;2023-06-14T00:48:18;7.38;;;3.90;;
70052;SDS011;57398;52.032;4.376;2023-06-14T00:51:07;6.93;;;3.50;;
70052;SDS011;57398;52.032;4.376;2023-06-14T00:53:57;7.47;;;3.70;;
70052;SDS011;57398;52.032;4.376;2023-06-14T00:56:45;9.13;;;4.18;;
70052;SDS011;57398;52.032;4.376;2023-06-14T00:59:33;7.10;;;3.70;;
70052;SDS011;57398;52.032;4.376;2023-06-14T01:02:22;7.63;;;3.80;;
70052;SDS011;57398;52.032;4.376;2023-06-14T01:05:12;8.35;;;3.83;;
70052;SDS011;57398;52.032;4.376;2023-06-14T01:08:05;8.30;;;4.15;;
70052;SDS011;57398;52.032;4.376;2023-06-14T01:11:05;7.85;;;4.07;;
70052;SDS011;57398;52.032;4.376;2023-06-14T01:13:59;10.20;;;3.83;;
70052;SDS011;57398;52.032;4.376;2023-06-14T01:16:50;7.00;;;3.50;;
70052;SDS011;57398;52.032;4.376;2023-06-14T01:19:40;9.10;;;3.65;;
70052;SDS011;57398;52.032;4.376;2023-06-14T01:22:29;7.53;;;3.33;;
70052;SDS011;57398;52.032;4.376;2023-06-14T01:25:19;7.50;;;3.58;;
70052;SDS011;57398;52.032;4.376;2023-06-14T01:28:09;7.27;;;3.67;;
70052;SDS011;57398;52.032;4.376;2023-06-14T01:31:00;7.72;;;3.50;;
70052;SDS011;57398;52.032;4.376;2023-06-14T01:33:51;6.88;;;3.38;;
70052;SDS011;57398;52.032;4.376;2023-06-14T01:36:41;6.55;;;3.17;;
70052;SDS011;57398;52.032;4.376;2023-06-14T01:39:31;6.38;;;3.28;;
70052;SDS011;57398;52.032;4.376;2023-06-14T01:42:22;7.47;;;3.50;;
70052;SDS011;57398;52.032;4.376;2023-06-14T01:45:11;7.53;;;3.25;;
70052;SDS011;57398;52.032;4.376;2023-06-14T01:48:00;7.43;;;3.38;;
70052;SDS011;57398;52.032;4.376;2023-06-14T01:50:48;7.93;;;3.50;;
70052;SDS011;57398;52.032;4.376;2023-06-14T01:53:37;9.10;;;3.50;;
70052;SDS011;57398;52.032;4.376;2023-06-14T01:56:25;7.10;;;3.30;;
70052;SDS011;57398;52.032;4.376;2023-06-14T01:59:15;6.75;;;3.20;;
70052;SDS011;57398;52.032;4.376;2023-06-14T02:02:04;7.35;;;3.70;;
70052;SDS011;57398;52.032;4.376;2023-06-14T02:04:52;7.35;;;3.70;;
70052;SDS011;57398;52.032;4.376;2023-06-14T02:07:44;7.72;;;3.72;;
70052;SDS011;57398;52.032;4.376;2023-06-14T02:10:32;7.77;;;3.50;;
70052;SDS011;57398;52.032;4.376;2023-06-14T02:13:22;7.32;;;3.50;;
70052;SDS011;57398;52.032;4.376;2023-06-14T02:16:11;7.72;;;3.60;;
70052;SDS011;57398;52.032;4.376;2023-06-14T02:19:01;7.15;;;3.60;;
70052;SDS011;57398;52.032;4.376;2023-06-14T02:21:49;8.65;;;3.55;;
70052;SDS011;57398;52.032;4.376;2023-06-14T02:24:37;6.60;;;3.57;;
70052;SDS011;57398;52.032;4.376;2023-06-14T02:27:26;7.57;;;3.50;;
70052;SDS011;57398;52.032;4.376;2023-06-14T02:30:14;7.57;;;3.83;;
70052;SDS011;57398;52.032;4.376;2023-06-14T02:33:04;7.88;;;3.78;;
70052;SDS011;57398;52.032;4.376;2023-06-14T02:35:53;9.60;;;3.65;;
70052;SDS011;57398;52.032;4.376;2023-06-14T02:38:41;7.97;;;3.87;;
70052;SDS011;57398;52.032;4.376;2023-06-14T02:41:29;8.43;;;3.90;;
70052;SDS011;57398;52.032;4.376;2023-06-14T02:44:18;7.88;;;4.00;;
70052;SDS011;57398;52.032;4.376;2023-06-14T02:47:07;8.98;;;3.90;;
70052;SDS011;57398;52.032;4.376;2023-06-14T02:49:56;9.90;;;3.75;;
70052;SDS011;57398;52.032;4.376;2023-06-14T02:52:45;9.20;;;3.90;;
70052;SDS011;57398;52.032;4.376;2023-06-14T02:55:34;7.63;;;3.85;;
70052;SDS011;57398;52.032;4.376;2023-06-14T02:58:26;6.68;;;3.60;;
70052;SDS011;57398;52.032;4.376;2023-06-14T03:01:15;7.85;;;3.90;;
70052;SDS011;57398;52.032;4.376;2023-06-14T03:04:03;8.88;;;3.70;;
70052;SDS011;57398;52.032;4.376;2023-06-14T03:06:53;9.52;;;3.95;;
70052;SDS011;57398;52.032;4.376;2023-06-14T03:09:41;7.87;;;3.50;;
70052;SDS011;57398;52.032;4.376;2023-06-14T03:12:30;8.52;;;3.80;;
70052;SDS011;57398;52.032;4.376;2023-06-14T03:15:18;8.85;;;3.95;;
70052;SDS011;57398;52.032;4.376;2023-06-14T03:18:07;8.13;;;3.88;;
70052;SDS011;57398;52.032;4.376;2023-06-14T03:20:56;8.07;;;4.00;;
70052;SDS011;57398;52.032;4.376;2023-06-14T03:23:47;13.80;;;4.43;;
70052;SDS011;57398;52.032;4.376;2023-06-14T03:26:37;8.50;;;3.75;;
70052;SDS011;57398;52.032;4.376;2023-06-14T03:29:25;7.80;;;3.67;;
70052;SDS011;57398;52.032;4.376;2023-06-14T03:32:13;8.18;;;4.13;;
70052;SDS011;57398;52.032;4.376;2023-06-14T03:35:02;7.00;;;3.97;;
70052;SDS011;57398;52.032;4.376;2023-06-14T03:37:50;9.53;;;3.80;;
70052;SDS011;57398;52.032;4.376;2023-06-14T03:40:40;9.95;;;3.83;;
70052;SDS011;57398;52.032;4.376;2023-06-14T03:43:28;8.10;;;4.05;;
70052;SDS011;57398;52.032;4.376;2023-06-14T03:46:17;8.43;;;3.45;;
70052;SDS011;57398;52.032;4.376;2023-06-14T03:49:05;8.00;;;3.80;;
70052;SDS011;57398;52.032;4.376;2023-06-14T03:51:53;8.67;;;3.80;;
70052;SDS011;57398;52.032;4.376;2023-06-14T03:54:42;8.95;;;3.80;;
70052;SDS011;57398;52.032;4.376;2023-06-14T03:57:35;8.65;;;3.70;;
70052;SDS011;57398;52.032;4.376;2023-06-14T04:00:23;12.10;;;3.65;;
70052;SDS011;57398;52.032;4.376;2023-06-14T04:03:11;9.77;;;3.60;;
70052;SDS011;57398;52.032;4.376;2023-06-14T04:06:00;7.23;;;3.50;;
70052;SDS011;57398;52.032;4.376;2023-06-14T04:08:49;9.38;;;3.60;;
70052;SDS011;57398;52.032;4.376;2023-06-14T04:11:37;6.80;;;3.30;;
70052;SDS011;57398;52.032;4.376;2023-06-14T04:14:27;7.43;;;3.47;;
70052;SDS011;57398;52.032;4.376;2023-06-14T04:17:15;7.55;;;3.70;;
70052;SDS011;57398;52.032;4.376;2023-06-14T04:20:04;8.73;;;3.50;;
70052;SDS011;57398;52.032;4.376;2023-06-14T04:22:56;6.72;;;3.47;;
70052;SDS011;57398;52.032;4.376;2023-06-14T04:25:44;8.15;;;3.50;;
70052;SDS011;57398;52.032;4.376;2023-06-14T04:28:33;7.45;;;3.58;;
70052;SDS011;57398;52.032;4.376;2023-06-14T04:31:25;7.40;;;3.58;;
70052;SDS011;57398;52.032;4.376;2023-06-14T04:34:15;7.50;;;3.60;;
70052;SDS011;57398;52.032;4.376;2023-06-14T04:37:04;7.95;;;3.55;;
70052;SDS011;57398;52.032;4.376;2023-06-14T04:39:55;8.38;;;3.50;;
70052;SDS011;57398;52.032;4.376;2023-06-14T04:42:44;8.27;;;3.63;;
70052;SDS011;57398;52.032;4.376;2023-06-14T04:45:32;6.90;;;3.45;;
70052;SDS011;57398;52.032;4.376;2023-06-14T04:48:22;6.43;;;3.30;;
70052;SDS011;57398;52.032;4.376;2023-06-14T04:51:11;6.38;;;3.22;;
70052;SDS011;57398;52.032;4.376;2023-06-14T04:53:59;6.65;;;3.50;;
70052;SDS011;57398;52.032;4.376;2023-06-14T04:56:50;7.50;;;3.38;;
70052;SDS011;57398;52.032;4.376;2023-06-14T04:59:39;6.22;;;3.40;;
70052;SDS011;57398;52.032;4.376;2023-06-14T05:02:27;6.07;;;3.30;;
70052;SDS011;57398;52.032;4.376;2023-06-14T05:05:19;7.68;;;3.30;;
70052;SDS011;57398;52.032;4.376;2023-06-14T05:08:07;7.10;;;3.28;;
70052;SDS011;57398;52.032;4.376;2023-06-14T05:10:56;6.32;;;3.00;;
70052;SDS011;57398;52.032;4.376;2023-06-14T05:13:44;8.35;;;3.25;;
70052;SDS011;57398;52.032;4.376;2023-06-14T05:16:33;6.43;;;3.30;;
70052;SDS011;57398;52.032;4.376;2023-06-14T05:19:21;6.68;;;2.95;;
70052;SDS011;57398;52.032;4.376;2023-06-14T05:22:11;7.50;;;3.50;;
70052;SDS011;57398;52.032;4.376;2023-06-14T05:24:59;7.75;;;3.28;;
70052;SDS011;57398;52.032;4.376;2023-06-14T05:27:47;5.40;;;2.80;;
70052;SDS011;57398;52.032;4.376;2023-06-14T05:30:37;10.20;;;3.47;;
70052;SDS011;57398;52.032;4.376;2023-06-14T05:33:26;5.70;;;3.30;;
70052;SDS011;57398;52.032;4.376;2023-06-14T05:36:15;6.20;;;3.28;;
70052;SDS011;57398;52.032;4.376;2023-06-14T05:39:04;8.45;;;3.13;;
70052;SDS011;57398;52.032;4.376;2023-06-14T05:41:55;7.65;;;3.00;;
70052;SDS011;57398;52.032;4.376;2023-06-14T05:44:43;7.43;;;3.40;;
70052;SDS011;57398;52.032;4.376;2023-06-14T05:47:32;6.47;;;3.22;;
70052;SDS011;57398;52.032;4.376;2023-06-14T05:50:21;6.57;;;3.47;;
70052;SDS011;57398;52.032;4.376;2023-06-14T05:53:09;7.32;;;3.13;;
70052;SDS011;57398;52.032;4.376;2023-06-14T05:55:58;6.78;;;3.10;;
70052;SDS011;57398;52.032;4.376;2023-06-14T05:58:47;7.57;;;3.27;;
70052;SDS011;57398;52.032;4.376;2023-06-14T06:01:37;6.68;;;3.20;;
70052;SDS011;57398;52.032;4.376;2023-06-14T06:04:26;6.75;;;2.80;;
70052;SDS011;57398;52.032;4.376;2023-06-14T06:07:15;8.05;;;3.63;;
70052;SDS011;57398;52.032;4.376;2023-06-14T06:10:03;8.00;;;3.58;;
70052;SDS011;57398;52.032;4.376;2023-06-14T06:12:54;8.80;;;3.30;;
70052;SDS011;57398;52.032;4.376;2023-06-14T06:15:42;7.22;;;3.25;;
70052;SDS011;57398;52.032;4.376;2023-06-14T06:18:30;8.05;;;3.30;;
70052;SDS011;57398;52.032;4.376;2023-06-14T06:21:19;6.68;;;3.35;;
70052;SDS011;57398;52.032;4.376;2023-06-14T06:24:07;7.05;;;3.30;;
70052;SDS011;57398;52.032;4.376;2023-06-14T06:26:55;7.53;;;3.60;;
70052;SDS011;57398;52.032;4.376;2023-06-14T06:29:45;7.18;;;3.40;;
70052;SDS011;57398;52.032;4.376;2023-06-14T06:32:35;6.75;;;3.17;;
70052;SDS011;57398;52.032;4.376;2023-06-14T06:35:23;7.05;;;2.88;;
70052;SDS011;57398;52.032;4.376;2023-06-14T06:38:11;10.07;;;3.17;;
70052;SDS011;57398;52.032;4.376;2023-06-14T06:41:00;6.20;;;3.07;;
70052;SDS011;57398;52.032;4.376;2023-06-14T06:43:48;7.80;;;3.03;;
70052;SDS011;57398;52.032;4.376;2023-06-14T06:46:38;6.18;;;3.00;;
70052;SDS011;57398;52.032;4.376;2023-06-14T06:49:28;7.25;;;3.13;;
70052;SDS011;57398;52.032;4.376;2023-06-14T06:52:16;7.93;;;3.28;;
70052;SDS011;57398;52.032;4.376;2023-06-14T06:55:04;6.20;;;2.90;;
70052;SDS011;57398;52.032;4.376;2023-06-14T06:57:53;10.40;;;3.47;;
70052;SDS011;57398;52.032;4.376;2023-06-14T07:00:42;7.22;;;3.25;;
70052;SDS011;57398;52.032;4.376;2023-06-14T07:03:32;7.13;;;3.30;;
70052;SDS011;57398;52.032;4.376;2023-06-14T07:06:20;8.00;;;3.78;;
70052;SDS011;57398;52.032;4.376;2023-06-14T07:09:08;8.17;;;3.40;;
70052;SDS011;57398;52.032;4.376;2023-06-14T07:11:59;8.15;;;3.63;;
70052;SDS011;57398;52.032;4.376;2023-06-14T07:14:47;7.28;;;3.30;;
70052;SDS011;57398;52.032;4.376;2023-06-14T07:17:35;8.52;;;3.35;;
70052;SDS011;57398;52.032;4.376;2023-06-14T07:20:26;6.20;;;3.03;;
70052;SDS011;57398;52.032;4.376;2023-06-14T07:23:15;7.43;;;3.50;;
70052;SDS011;57398;52.032;4.376;2023-06-14T07:26:03;7.88;;;3.65;;
70052;SDS011;57398;52.032;4.376;2023-06-14T07:28:52;6.35;;;3.17;;
70052;SDS011;57398;52.032;4.376;2023-06-14T07:31:40;7.75;;;3.70;;
70052;SDS011;57398;52.032;4.376;2023-06-14T07:34:28;10.27;;;3.65;;
70052;SDS011;57398;52.032;4.376;2023-06-14T07:37:18;6.83;;;3.40;;
70052;SDS011;57398;52.032;4.376;2023-06-14T07:40:06;8.30;;;3.70;;
70052;SDS011;57398;52.032;4.376;2023-06-14T07:42:57;7.05;;;3.28;;
70052;SDS011;57398;52.032;4.376;2023-06-14T07:45:45;7.47;;;3.95;;
70052;SDS011;57398;52.032;4.376;2023-06-14T07:48:48;8.80;;;3.92;;
70052;SDS011;57398;52.032;4.376;2023-06-14T07:51:37;8.57;;;3.70;;
70052;SDS011;57398;52.032;4.376;2023-06-14T07:54:28;6.93;;;3.17;;
70052;SDS011;57398;52.032;4.376;2023-06-14T07:57:19;7.72;;;3.40;;
70052;SDS011;57398;52.032;4.376;2023-06-14T08:00:08;7.63;;;3.40;;
70052;SDS011;57398;52.032;4.376;2023-06-14T08:03:01;8.25;;;3.47;;
70052;SDS011;57398;52.032;4.376;2023-06-14T08:05:50;6.40;;;3.60;;
70052;SDS011;57398;52.032;4.376;2023-06-14T08:08:39;8.20;;;4.28;;
70052;SDS011;57398;52.032;4.376;2023-06-14T08:11:28;7.35;;;3.78;;
70052;SDS011;57398;52.032;4.376;2023-06-14T08:14:16;7.68;;;3.70;;
70052;SDS011;57398;52.032;4.376;2023-06-14T08:17:04;7.13;;;3.80;;
70052;SDS011;57398;52.032;4.376;2023-06-14T08:19:53;6.20;;;4.00;;
70052;SDS011;57398;52.032;4.376;2023-06-14T08:22:44;7.43;;;3.95;;
70052;SDS011;57398;52.032;4.376;2023-06-14T08:25:34;7.80;;;3.70;;
70052;SDS011;57398;52.032;4.376;2023-06-14T08:28:25;7.15;;;3.63;;
70052;SDS011;57398;52.032;4.376;2023-06-14T08:31:13;7.30;;;3.78;;
70052;SDS011;57398;52.032;4.376;2023-06-14T08:34:01;8.23;;;4.00;;
70052;SDS011;57398;52.032;4.376;2023-06-14T08:36:51;7.05;;;3.60;;
70052;SDS011;57398;52.032;4.376;2023-06-14T08:39:40;8.13;;;4.10;;
70052;SDS011;57398;52.032;4.376;2023-06-14T08:42:29;9.63;;;3.70;;
70052;SDS011;57398;52.032;4.376;2023-06-14T08:45:20;9.18;;;3.80;;
70052;SDS011;57398;52.032;4.376;2023-06-14T08:48:12;8.27;;;3.83;;
70052;SDS011;57398;52.032;4.376;2023-06-14T08:51:04;8.48;;;3.80;;
70052;SDS011;57398;52.032;4.376;2023-06-14T08:53:53;9.05;;;4.13;;
70052;SDS011;57398;52.032;4.376;2023-06-14T08:56:44;9.00;;;3.60;;
70052;SDS011;57398;52.032;4.376;2023-06-14T08:59:34;7.90;;;3.60;;
70052;SDS011;57398;52.032;4.376;2023-06-14T09:02:27;8.20;;;3.90;;
70052;SDS011;57398;52.032;4.376;2023-06-14T09:05:16;8.80;;;4.15;;
70052;SDS011;57398;52.032;4.376;2023-06-14T09:08:05;6.68;;;3.90;;
70052;SDS011;57398;52.032;4.376;2023-06-14T09:10:53;7.15;;;3.55;;
70052;SDS011;57398;52.032;4.376;2023-06-14T09:13:43;7.75;;;3.80;;
70052;SDS011;57398;52.032;4.376;2023-06-14T09:16:32;7.40;;;3.90;;
70052;SDS011;57398;52.032;4.376;2023-06-14T09:19:22;7.65;;;3.78;;
70052;SDS011;57398;52.032;4.376;2023-06-14T09:22:11;10.05;;;3.67;;
70052;SDS011;57398;52.032;4.376;2023-06-14T09:24:59;7.50;;;3.38;;
70052;SDS011;57398;52.032;4.376;2023-06-14T09:27:48;6.50;;;3.50;;
70052;SDS011;57398;52.032;4.376;2023-06-14T09:30:36;7.67;;;3.33;;
70052;SDS011;57398;52.032;4.376;2023-06-14T09:33:25;6.00;;;3.40;;
70052;SDS011;57398;52.032;4.376;2023-06-14T09:36:16;9.48;;;3.50;;
70052;SDS011;57398;52.032;4.376;2023-06-14T09:39:05;6.95;;;3.30;;
70052;SDS011;57398;52.032;4.376;2023-06-14T09:41:54;8.38;;;3.20;;
70052;SDS011;57398;52.032;4.376;2023-06-14T09:44:42;7.30;;;3.20;;
70052;SDS011;57398;52.032;4.376;2023-06-14T09:47:33;7.18;;;3.30;;
70052;SDS011;57398;52.032;4.376;2023-06-14T09:50:22;5.60;;;3.20;;
70052;SDS011;57398;52.032;4.376;2023-06-14T09:53:11;6.35;;;3.35;;
70052;SDS011;57398;52.032;4.376;2023-06-14T09:56:00;6.80;;;3.00;;
70052;SDS011;57398;52.032;4.376;2023-06-14T09:58:49;6.63;;;3.17;;
70052;SDS011;57398;52.032;4.376;2023-06-14T10:01:53;6.70;;;3.35;;
70052;SDS011;57398;52.032;4.376;2023-06-14T10:04:46;5.95;;;3.00;;
70052;SDS011;57398;52.032;4.376;2023-06-14T10:07:39;6.90;;;3.40;;
70052;SDS011;57398;52.032;4.376;2023-06-14T10:10:29;5.70;;;3.17;;
70052;SDS011;57398;52.032;4.376;2023-06-14T10:13:17;7.83;;;3.50;;
70052;SDS011;57398;52.032;4.376;2023-06-14T10:16:08;5.95;;;2.83;;
70052;SDS011;57398;52.032;4.376;2023-06-14T10:19:01;6.03;;;2.95;;
70052;SDS011;57398;52.032;4.376;2023-06-14T10:21:51;5.88;;;2.85;;
70052;SDS011;57398;52.032;4.376;2023-06-14T10:24:47;5.38;;;2.63;;
70052;SDS011;57398;52.032;4.376;2023-06-14T10:27:38;6.27;;;2.93;;
70052;SDS011;57398;52.032;4.376;2023-06-14T10:30:27;5.78;;;2.63;;
70052;SDS011;57398;52.032;4.376;2023-06-14T10:33:16;5.90;;;2.72;;
70052;SDS011;57398;52.032;4.376;2023-06-14T10:36:11;6.18;;;2.78;;
70052;SDS011;57398;52.032;4.376;2023-06-14T10:39:15;6.45;;;2.67;;
70052;SDS011;57398;52.032;4.376;2023-06-14T10:42:05;5.57;;;2.70;;
70052;SDS011;57398;52.032;4.376;2023-06-14T10:44:55;6.80;;;2.55;;
70052;SDS011;57398;52.032;4.376;2023-06-14T10:47:46;5.03;;;2.53;;
70052;SDS011;57398;52.032;4.376;2023-06-14T10:50:39;7.25;;;2.50;;
70052;SDS011;57398;52.032;4.376;2023-06-14T10:53:36;4.88;;;2.53;;
70052;SDS011;57398;52.032;4.376;2023-06-14T10:56:27;6.07;;;2.77;;
70052;SDS011;57398;52.032;4.376;2023-06-14T10:59:16;4.63;;;2.03;;
70052;SDS011;57398;52.032;4.376;2023-06-14T11:02:12;4.95;;;2.38;;
70052;SDS011;57398;52.032;4.376;2023-06-14T11:05:20;5.80;;;2.08;;
70052;SDS011;57398;52.032;4.376;2023-06-14T11:08:26;4.60;;;2.20;;
70052;SDS011;57398;52.032;4.376;2023-06-14T11:11:29;13.13;;;2.83;;
70052;SDS011;57398;52.032;4.376;2023-06-14T11:14:22;4.40;;;2.03;;
70052;SDS011;57398;52.032;4.376;2023-06-14T11:17:11;3.83;;;1.75;;
70052;SDS011;57398;52.032;4.376;2023-06-14T11:20:09;5.25;;;2.00;;
70052;SDS011;57398;52.032;4.376;2023-06-14T11:23:02;4.10;;;1.90;;
70052;SDS011;57398;52.032;4.376;2023-06-14T11:25:51;4.68;;;2.03;;
70052;SDS011;57398;52.032;4.376;2023-06-14T11:28:39;8.00;;;2.13;;
70052;SDS011;57398;52.032;4.376;2023-06-14T11:31:29;4.38;;;1.70;;
70052;SDS011;57398;52.032;4.376;2023-06-14T11:34:20;4.53;;;1.77;;
70052;SDS011;57398;52.032;4.376;2023-06-14T11:37:09;3.78;;;1.70;;
70052;SDS011;57398;52.032;4.376;2023-06-14T11:39:57;4.10;;;1.70;;
70052;SDS011;57398;52.032;4.376;2023-06-14T11:42:45;4.80;;;1.70;;
70052;SDS011;57398;52.032;4.376;2023-06-14T11:45:33;4.32;;;1.80;;
70052;SDS011;57398;52.032;4.376;2023-06-14T11:48:22;4.30;;;1.77;;
70052;SDS011;57398;52.032;4.376;2023-06-14T11:51:11;3.83;;;1.60;;
70052;SDS011;57398;52.032;4.376;2023-06-14T11:53:59;4.85;;;1.70;;
70052;SDS011;57398;52.032;4.376;2023-06-14T11:56:49;4.20;;;1.50;;
70052;SDS011;57398;52.032;4.376;2023-06-14T11:59:38;5.32;;;1.63;;
70052;SDS011;57398;52.032;4.376;2023-06-14T12:02:26;6.25;;;1.60;;
70052;SDS011;57398;52.032;4.376;2023-06-14T12:05:16;5.00;;;1.65;;
70052;SDS011;57398;52.032;4.376;2023-06-14T12:08:06;3.75;;;1.58;;
70052;SDS011;57398;52.032;4.376;2023-06-14T12:10:54;4.07;;;1.77;;
70052;SDS011;57398;52.032;4.376;2023-06-14T12:13:43;4.57;;;1.52;;
70052;SDS011;57398;52.032;4.376;2023-06-14T12:16:32;5.38;;;2.20;;
70052;SDS011;57398;52.032;4.376;2023-06-14T12:19:25;6.70;;;1.50;;
70052;SDS011;57398;52.032;4.376;2023-06-14T12:22:14;4.07;;;1.77;;
70052;SDS011;57398;52.032;4.376;2023-06-14T12:25:04;5.33;;;1.60;;
70052;SDS011;57398;52.032;4.376;2023-06-14T12:27:52;3.85;;;1.60;;
70052;SDS011;57398;52.032;4.376;2023-06-14T12:30:41;4.72;;;1.60;;
70052;SDS011;57398;52.032;4.376;2023-06-14T12:33:29;4.57;;;1.50;;
70052;SDS011;57398;52.032;4.376;2023-06-14T12:36:19;4.00;;;1.50;;
70052;SDS011;57398;52.032;4.376;2023-06-14T12:39:07;4.07;;;1.27;;
70052;SDS011;57398;52.032;4.376;2023-06-14T12:41:57;4.88;;;1.23;;
70052;SDS011;57398;52.032;4.376;2023-06-14T12:44:45;4.55;;;1.80;;
70052;SDS011;57398;52.032;4.376;2023-06-14T12:47:33;4.40;;;1.80;;
70052;SDS011;57398;52.032;4.376;2023-06-14T12:50:22;4.20;;;1.60;;
70052;SDS011;57398;52.032;4.376;2023-06-14T12:53:12;4.83;;;1.90;;
70052;SDS011;57398;52.032;4.376;2023-06-14T12:56:00;5.95;;;1.60;;
70052;SDS011;57398;52.032;4.376;2023-06-14T12:58:49;4.20;;;1.70;;
70052;SDS011;57398;52.032;4.376;2023-06-14T13:01:38;4.43;;;1.65;;
70052;SDS011;57398;52.032;4.376;2023-06-14T13:04:26;4.40;;;1.80;;
70052;SDS011;57398;52.032;4.376;2023-06-14T13:07:14;4.30;;;1.70;;
70052;SDS011;57398;52.032;4.376;2023-06-14T13:10:02;4.65;;;1.70;;
70052;SDS011;57398;52.032;4.376;2023-06-14T13:12:51;4.05;;;1.60;;
70052;SDS011;57398;52.032;4.376;2023-06-14T13:15:41;5.03;;;1.40;;
70052;SDS011;57398;52.032;4.376;2023-06-14T13:18:30;4.45;;;1.60;;
70052;SDS011;57398;52.032;4.376;2023-06-14T13:21:18;4.03;;;1.70;;
70052;SDS011;57398;52.032;4.376;2023-06-14T13:24:07;5.05;;;1.83;;
70052;SDS011;57398;52.032;4.376;2023-06-14T13:26:55;6.10;;;2.05;;
70052;SDS011;57398;52.032;4.376;2023-06-14T13:29:43;4.18;;;1.73;;
70052;SDS011;57398;52.032;4.376;2023-06-14T13:32:33;4.93;;;1.70;;
70052;SDS011;57398;52.032;4.376;2023-06-14T13:35:21;4.07;;;1.70;;
70052;SDS011;57398;52.032;4.376;2023-06-14T13:38:10;3.90;;;1.52;;
70052;SDS011;57398;52.032;4.376;2023-06-14T13:40:58;4.40;;;1.70;;
70052;SDS011;57398;52.032;4.376;2023-06-14T13:43:46;4.57;;;1.90;;
70052;SDS011;57398;52.032;4.376;2023-06-14T13:46:34;4.57;;;1.80;;
70052;SDS011;57398;52.032;4.376;2023-06-14T13:49:24;4.77;;;1.83;;
70052;SDS011;57398;52.032;4.376;2023-06-14T13:52:12;4.75;;;1.60;;
70052;SDS011;57398;52.032;4.376;2023-06-14T13:55:01;4.70;;;1.65;;
70052;SDS011;57398;52.032;4.376;2023-06-14T13:57:51;4.07;;;1.75;;
70052;SDS011;57398;52.032;4.376;2023-06-14T14:00:39;6.97;;;1.80;;
70052;SDS011;57398;52.032;4.376;2023-06-14T14:03:27;3.77;;;1.50;;
70052;SDS011;57398;52.032;4.376;2023-06-14T14:06:17;5.03;;;1.88;;
70052;SDS011;57398;52.032;4.376;2023-06-14T14:09:05;5.28;;;2.10;;
70052;SDS011;57398;52.032;4.376;2023-06-14T14:11:53;5.43;;;1.70;;
70052;SDS011;57398;52.032;4.376;2023-06-14T14:14:42;4.80;;;2.30;;
70052;SDS011;57398;52.032;4.376;2023-06-14T14:17:30;3.97;;;1.80;;
70052;SDS011;57398;52.032;4.376;2023-06-14T14:20:19;7.00;;;1.90;;
70052;SDS011;57398;52.032;4.376;2023-06-14T14:23:09;5.90;;;1.90;;
70052;SDS011;57398;52.032;4.376;2023-06-14T14:25:57;4.57;;;1.70;;
70052;SDS011;57398;52.032;4.376;2023-06-14T14:28:47;4.40;;;1.90;;
70052;SDS011;57398;52.032;4.376;2023-06-14T14:31:35;3.83;;;1.70;;
70052;SDS011;57398;52.032;4.376;2023-06-14T14:34:24;4.75;;;1.98;;
70052;SDS011;57398;52.032;4.376;2023-06-14T14:37:12;5.10;;;1.85;;
70052;SDS011;57398;52.032;4.376;2023-06-14T14:40:03;5.00;;;2.00;;
70052;SDS011;57398;52.032;4.376;2023-06-14T14:42:52;4.88;;;1.70;;
70052;SDS011;57398;52.032;4.376;2023-06-14T14:45:41;4.30;;;1.67;;
70052;SDS011;57398;52.032;4.376;2023-06-14T14:48:31;5.18;;;1.58;;
70052;SDS011;57398;52.032;4.376;2023-06-14T14:51:20;4.38;;;1.67;;
70052;SDS011;57398;52.032;4.376;2023-06-14T14:54:08;5.13;;;2.00;;
70052;SDS011;57398;52.032;4.376;2023-06-14T14:56:59;5.05;;;1.83;;
70052;SDS011;57398;52.032;4.376;2023-06-14T14:59:47;4.60;;;1.60;;
70052;SDS011;57398;52.032;4.376;2023-06-14T15:02:35;5.15;;;1.63;;
70052;SDS011;57398;52.032;4.376;2023-06-14T15:05:24;3.90;;;1.70;;
70052;SDS011;57398;52.032;4.376;2023-06-14T15:08:12;4.00;;;1.90;;
70052;SDS011;57398;52.032;4.376;2023-06-14T15:11:01;4.35;;;1.40;;
70052;SDS011;57398;52.032;4.376;2023-06-14T15:13:51;5.10;;;1.90;;
70052;SDS011;57398;52.032;4.376;2023-06-14T15:16:40;4.35;;;1.77;;
70052;SDS011;57398;52.032;4.376;2023-06-14T15:19:29;4.78;;;1.95;;
70052;SDS011;57398;52.032;4.376;2023-06-14T15:22:17;4.28;;;1.60;;
70052;SDS011;57398;52.032;4.376;2023-06-14T15:25:06;4.47;;;1.92;;
70052;SDS011;57398;52.032;4.376;2023-06-14T15:27:56;4.67;;;1.77;;
70052;SDS011;57398;52.032;4.376;2023-06-14T15:30:46;5.28;;;1.70;;
70052;SDS011;57398;52.032;4.376;2023-06-14T15:33:36;4.50;;;1.65;;
70052;SDS011;57398;52.032;4.376;2023-06-14T15:36:24;6.20;;;1.70;;
70052;SDS011;57398;52.032;4.376;2023-06-14T15:39:12;6.00;;;1.77;;
70052;SDS011;57398;52.032;4.376;2023-06-14T15:42:00;4.63;;;2.03;;
70052;SDS011;57398;52.032;4.376;2023-06-14T15:44:49;4.00;;;1.80;;
70052;SDS011;57398;52.032;4.376;2023-06-14T15:47:38;5.43;;;2.00;;
70052;SDS011;57398;52.032;4.376;2023-06-14T15:50:28;6.90;;;1.60;;
70052;SDS011;57398;52.032;4.376;2023-06-14T15:53:16;3.92;;;1.80;;
70052;SDS011;57398;52.032;4.376;2023-06-14T15:56:05;5.67;;;1.87;;
70052;SDS011;57398;52.032;4.376;2023-06-14T15:58:53;3.83;;;1.70;;
70052;SDS011;57398;52.032;4.376;2023-06-14T16:01:41;4.43;;;1.80;;
70052;SDS011;57398;52.032;4.376;2023-06-14T16:04:30;4.93;;;1.80;;
70052;SDS011;57398;52.032;4.376;2023-06-14T16:07:19;4.35;;;1.60;;
70052;SDS011;57398;52.032;4.376;2023-06-14T16:10:07;5.20;;;2.20;;
70052;SDS011;57398;52.032;4.376;2023-06-14T16:12:56;4.47;;;1.70;;
70052;SDS011;57398;52.032;4.376;2023-06-14T16:15:44;5.13;;;1.50;;
70052;SDS011;57398;52.032;4.376;2023-06-14T16:18:32;5.10;;;1.50;;
70052;SDS011;57398;52.032;4.376;2023-06-14T16:21:22;4.63;;;1.70;;
70052;SDS011;57398;52.032;4.376;2023-06-14T16:24:10;4.80;;;1.53;;
70052;SDS011;57398;52.032;4.376;2023-06-14T16:26:58;3.67;;;1.50;;
70052;SDS011;57398;52.032;4.376;2023-06-14T16:29:47;4.68;;;1.60;;
70052;SDS011;57398;52.032;4.376;2023-06-14T16:32:35;8.00;;;2.17;;
70052;SDS011;57398;52.032;4.376;2023-06-14T16:35:23;5.70;;;1.70;;
70052;SDS011;57398;52.032;4.376;2023-06-14T16:38:13;5.03;;;1.70;;
70052;SDS011;57398;52.032;4.376;2023-06-14T16:41:01;5.35;;;1.58;;
70052;SDS011;57398;52.032;4.376;2023-06-14T16:43:50;4.15;;;1.70;;
70052;SDS011;57398;52.032;4.376;2023-06-14T16:46:38;5.63;;;2.00;;
70052;SDS011;57398;52.032;4.376;2023-06-14T16:49:26;3.67;;;1.60;;
70052;SDS011;57398;52.032;4.376;2023-06-14T16:52:15;5.93;;;2.00;;
70052;SDS011;57398;52.032;4.376;2023-06-14T16:55:04;5.63;;;1.92;;
70052;SDS011;57398;52.032;4.376;2023-06-14T16:57:54;4.72;;;1.80;;
70052;SDS011;57398;52.032;4.376;2023-06-14T17:00:42;4.20;;;1.60;;